sensor_id;sensor_type;location;lat;lon;timestamp;pressure;altitude;pressure_sealevel;temperature;humidity
40592;BME280;26301;42.832;23.918;2023-08-30T00:00:58;92427.94;;;17.52;85.71
40592;BME280;26301;42.832;23.918;2023-08-30T00:03:24;92417.50;;;17.38;86.16
40592;BME280;26301;42.832;23.918;2023-08-30T00:05:49;92412.25;;;17.30;86.96
40592;BME280;26301;42.832;23.918;2023-08-30T00:08:15;92418.50;;;17.29;87.93
40592;BME280;26301;42.832;23.918;2023-08-30T00:10:48;92392.97;;;17.03;89.32
40592;BME280;26301;42.832;23.918;2023-08-30T00:13:14;92414.00;;;17.07;89.66
40592;BME280;26301;42.832;23.918;2023-08-30T00:15:40;92407.06;;;17.02;90.64
40592;BME280;26301;42.832;23.918;2023-08-30T00:18:07;92382.16;;;16.82;91.06
40592;BME280;26301;42.832;23.918;2023-08-30T00:20:32;92398.38;;;16.93;91.22
40592;BME280;26301;42.832;23.918;2023-08-30T00:22:59;92382.25;;;16.77;91.52
40592;BME280;26301;42.832;23.918;2023-08-30T00:25:25;92381.28;;;16.73;92.81
40592;BME280;26301;42.832;23.918;2023-08-30T00:27:51;92389.19;;;16.68;95.15
40592;BME280;26301;42.832;23.918;2023-08-30T00:30:18;92372.31;;;16.52;95.70
40592;BME280;26301;42.832;23.918;2023-08-30T00:32:43;92383.88;;;16.59;96.70
40592;BME280;26301;42.832;23.918;2023-08-30T00:35:10;92366.22;;;16.56;96.58
40592;BME280;26301;42.832;23.918;2023-08-30T00:37:36;92385.06;;;16.67;96.77
40592;BME280;26301;42.832;23.918;2023-08-30T00:40:02;92378.56;;;16.64;96.38
40592;BME280;26301;42.832;23.918;2023-08-30T00:42:28;92379.38;;;16.79;96.37
40592;BME280;26301;42.832;23.918;2023-08-30T00:44:55;92376.47;;;16.80;95.63
40592;BME280;26301;42.832;23.918;2023-08-30T00:47:21;92355.78;;;16.70;95.75
40592;BME280;26301;42.832;23.918;2023-08-30T00:49:48;92346.97;;;16.66;94.94
40592;BME280;26301;42.832;23.918;2023-08-30T00:52:14;92377.81;;;16.91;94.46
40592;BME280;26301;42.832;23.918;2023-08-30T00:54:40;92368.06;;;16.83;95.20
40592;BME280;26301;42.832;23.918;2023-08-30T00:57:06;92383.88;;;17.01;94.58
40592;BME280;26301;42.832;23.918;2023-08-30T00:59:33;92370.44;;;16.94;94.84
40592;BME280;26301;42.832;23.918;2023-08-30T01:02:02;92368.72;;;16.89;95.90
40592;BME280;26301;42.832;23.918;2023-08-30T01:04:29;92394.59;;;16.99;96.68
40592;BME280;26301;42.832;23.918;2023-08-30T01:06:57;92388.13;;;16.97;96.54
40592;BME280;26301;42.832;23.918;2023-08-30T01:09:24;92373.00;;;16.85;96.11
40592;BME280;26301;42.832;23.918;2023-08-30T01:11:56;92399.81;;;16.99;95.40
40592;BME280;26301;42.832;23.918;2023-08-30T01:14:34;92399.53;;;17.01;95.17
40592;BME280;26301;42.832;23.918;2023-08-30T01:17:00;92398.28;;;16.98;94.67
40592;BME280;26301;42.832;23.918;2023-08-30T01:19:41;92400.03;;;17.03;94.87
40592;BME280;26301;42.832;23.918;2023-08-30T01:27:31;92403.00;;;17.10;93.49
40592;BME280;26301;42.832;23.918;2023-08-30T01:30:02;92413.69;;;17.22;92.92
40592;BME280;26301;42.832;23.918;2023-08-30T01:32:28;92408.88;;;17.16;93.32
40592;BME280;26301;42.832;23.918;2023-08-30T01:34:55;92408.13;;;17.15;93.20
40592;BME280;26301;42.832;23.918;2023-08-30T01:37:22;92415.16;;;17.14;93.32
40592;BME280;26301;42.832;23.918;2023-08-30T01:39:51;92398.47;;;17.02;92.70
40592;BME280;26301;42.832;23.918;2023-08-30T01:42:17;92426.44;;;17.24;91.99
40592;BME280;26301;42.832;23.918;2023-08-30T01:44:51;92408.03;;;17.06;92.66
40592;BME280;26301;42.832;23.918;2023-08-30T01:47:20;92393.81;;;16.99;93.06
40592;BME280;26301;42.832;23.918;2023-08-30T01:49:47;92402.72;;;16.98;93.65
40592;BME280;26301;42.832;23.918;2023-08-30T01:52:15;92401.38;;;17.00;93.24
40592;BME280;26301;42.832;23.918;2023-08-30T01:54:43;92395.75;;;16.93;93.13
40592;BME280;26301;42.832;23.918;2023-08-30T01:57:10;92404.44;;;17.02;92.42
40592;BME280;26301;42.832;23.918;2023-08-30T01:59:36;92401.06;;;17.02;92.12
40592;BME280;26301;42.832;23.918;2023-08-30T02:02:03;92392.28;;;16.84;92.59
40592;BME280;26301;42.832;23.918;2023-08-30T02:04:30;92401.06;;;17.02;92.15
40592;BME280;26301;42.832;23.918;2023-08-30T02:07:13;92379.75;;;16.86;92.87
40592;BME280;26301;42.832;23.918;2023-08-30T02:09:58;92378.47;;;16.69;93.53
40592;BME280;26301;42.832;23.918;2023-08-30T02:12:49;92400.28;;;16.74;93.90
40592;BME280;26301;42.832;23.918;2023-08-30T02:15:16;92393.34;;;16.41;95.21
40592;BME280;26301;42.832;23.918;2023-08-30T02:17:47;92416.81;;;16.55;95.65
40592;BME280;26301;42.832;23.918;2023-08-30T02:20:14;92405.78;;;16.44;95.97
40592;BME280;26301;42.832;23.918;2023-08-30T02:22:40;92422.31;;;16.40;97.89
40592;BME280;26301;42.832;23.918;2023-08-30T02:25:06;92419.00;;;16.34;98.95
40592;BME280;26301;42.832;23.918;2023-08-30T02:27:33;92406.75;;;16.35;99.65
40592;BME280;26301;42.832;23.918;2023-08-30T02:30:00;92398.44;;;16.33;99.63
40592;BME280;26301;42.832;23.918;2023-08-30T02:32:26;92391.50;;;16.28;99.95
40592;BME280;26301;42.832;23.918;2023-08-30T02:34:53;92380.47;;;16.17;100.00
40592;BME280;26301;42.832;23.918;2023-08-30T02:37:19;92370.34;;;16.16;99.68
40592;BME280;26301;42.832;23.918;2023-08-30T02:39:45;92390.63;;;16.33;99.60
40592;BME280;26301;42.832;23.918;2023-08-30T02:42:11;92385.78;;;16.26;99.62
40592;BME280;26301;42.832;23.918;2023-08-30T02:44:39;92382.56;;;16.15;99.92
40592;BME280;26301;42.832;23.918;2023-08-30T02:47:05;92391.84;;;16.21;100.00
40592;BME280;26301;42.832;23.918;2023-08-30T02:49:31;92373.81;;;16.11;100.00
40592;BME280;26301;42.832;23.918;2023-08-30T02:51:57;92385.97;;;16.16;100.00
40592;BME280;26301;42.832;23.918;2023-08-30T02:54:25;92376.41;;;16.11;99.98
40592;BME280;26301;42.832;23.918;2023-08-30T02:56:50;92366.00;;;16.11;99.40
40592;BME280;26301;42.832;23.918;2023-08-30T02:59:16;92391.09;;;16.21;100.00
40592;BME280;26301;42.832;23.918;2023-08-30T03:01:43;92375.41;;;15.93;100.00
40592;BME280;26301;42.832;23.918;2023-08-30T03:04:09;92400.72;;;16.07;100.00
40592;BME280;26301;42.832;23.918;2023-08-30T03:06:35;92397.81;;;16.08;100.00
40592;BME280;26301;42.832;23.918;2023-08-30T03:09:02;92388.84;;;16.00;100.00
40592;BME280;26301;42.832;23.918;2023-08-30T03:11:28;92398.31;;;16.10;100.00
40592;BME280;26301;42.832;23.918;2023-08-30T03:13:54;92394.56;;;16.16;99.36
40592;BME280;26301;42.832;23.918;2023-08-30T03:16:20;92410.78;;;16.27;100.00
40592;BME280;26301;42.832;23.918;2023-08-30T03:18:47;92414.81;;;16.19;99.92
40592;BME280;26301;42.832;23.918;2023-08-30T03:21:14;92405.19;;;16.20;99.57
40592;BME280;26301;42.832;23.918;2023-08-30T03:23:41;92409.88;;;16.18;99.79
40592;BME280;26301;42.832;23.918;2023-08-30T03:26:11;92398.00;;;16.12;99.72
40592;BME280;26301;42.832;23.918;2023-08-30T03:28:37;92411.72;;;16.17;99.82
40592;BME280;26301;42.832;23.918;2023-08-30T03:31:18;92410.66;;;16.18;99.53
40592;BME280;26301;42.832;23.918;2023-08-30T03:33:44;92386.81;;;16.11;98.90
40592;BME280;26301;42.832;23.918;2023-08-30T03:36:13;92401.16;;;16.28;98.53
40592;BME280;26301;42.832;23.918;2023-08-30T03:38:39;92397.56;;;16.23;97.41
40592;BME280;26301;42.832;23.918;2023-08-30T03:41:06;92408.66;;;16.29;98.33
40592;BME280;26301;42.832;23.918;2023-08-30T03:43:33;92382.97;;;16.09;98.54
40592;BME280;26301;42.832;23.918;2023-08-30T03:46:02;92393.09;;;16.10;99.18
40592;BME280;26301;42.832;23.918;2023-08-30T03:48:29;92398.44;;;16.19;98.22
40592;BME280;26301;42.832;23.918;2023-08-30T03:50:55;92382.69;;;16.10;98.69
40592;BME280;26301;42.832;23.918;2023-08-30T03:53:22;92388.09;;;16.14;98.63
40592;BME280;26301;42.832;23.918;2023-08-30T03:55:48;92379.59;;;16.08;98.22
40592;BME280;26301;42.832;23.918;2023-08-30T03:58:14;92401.81;;;16.19;97.85
40592;BME280;26301;42.832;23.918;2023-08-30T04:00:40;92414.00;;;16.38;96.07
40592;BME280;26301;42.832;23.918;2023-08-30T04:03:09;92390.91;;;16.31;95.21
40592;BME280;26301;42.832;23.918;2023-08-30T04:05:38;92376.22;;;16.21;95.54
40592;BME280;26301;42.832;23.918;2023-08-30T04:08:05;92406.44;;;16.36;94.58
40592;BME280;26301;42.832;23.918;2023-08-30T04:10:38;92379.88;;;16.20;95.75
40592;BME280;26301;42.832;23.918;2023-08-30T04:13:05;92400.56;;;16.31;94.98
40592;BME280;26301;42.832;23.918;2023-08-30T04:15:36;92395.06;;;16.32;94.55
40592;BME280;26301;42.832;23.918;2023-08-30T04:18:03;92393.03;;;16.29;94.69
40592;BME280;26301;42.832;23.918;2023-08-30T04:20:29;92406.81;;;16.30;95.58
40592;BME280;26301;42.832;23.918;2023-08-30T04:22:55;92398.81;;;16.26;95.62
40592;BME280;26301;42.832;23.918;2023-08-30T04:25:22;92400.66;;;16.26;96.10
40592;BME280;26301;42.832;23.918;2023-08-30T04:27:48;92401.81;;;16.19;97.00
40592;BME280;26301;42.832;23.918;2023-08-30T04:30:15;92403.78;;;16.09;97.95
40592;BME280;26301;42.832;23.918;2023-08-30T04:32:42;92413.19;;;16.10;99.00
40592;BME280;26301;42.832;23.918;2023-08-30T04:35:08;92401.56;;;16.02;99.99
40592;BME280;26301;42.832;23.918;2023-08-30T04:37:34;92383.47;;;15.78;100.00
40592;BME280;26301;42.832;23.918;2023-08-30T04:39:59;92406.00;;;16.02;100.00
40592;BME280;26301;42.832;23.918;2023-08-30T04:42:26;92386.69;;;15.89;100.00
40592;BME280;26301;42.832;23.918;2023-08-30T04:44:52;92378.78;;;15.94;100.00
40592;BME280;26301;42.832;23.918;2023-08-30T04:47:20;92400.72;;;16.20;100.00
40592;BME280;26301;42.832;23.918;2023-08-30T04:49:52;92397.97;;;16.31;100.00
40592;BME280;26301;42.832;23.918;2023-08-30T04:52:18;92399.88;;;16.39;100.00
40592;BME280;26301;42.832;23.918;2023-08-30T04:54:44;92379.16;;;16.34;100.00
40592;BME280;26301;42.832;23.918;2023-08-30T04:57:11;92390.06;;;16.50;99.93
40592;BME280;26301;42.832;23.918;2023-08-30T04:59:43;92408.78;;;16.65;99.04
40592;BME280;26301;42.832;23.918;2023-08-30T05:02:10;92401.84;;;16.75;99.13
40592;BME280;26301;42.832;23.918;2023-08-30T05:04:36;92403.50;;;16.84;99.37
40592;BME280;26301;42.832;23.918;2023-08-30T05:07:02;92405.53;;;17.01;98.03
40592;BME280;26301;42.832;23.918;2023-08-30T05:09:30;92405.50;;;17.15;97.88
40592;BME280;26301;42.832;23.918;2023-08-30T05:11:56;92401.31;;;17.28;97.17
40592;BME280;26301;42.832;23.918;2023-08-30T05:14:22;92410.34;;;17.44;96.86
40592;BME280;26301;42.832;23.918;2023-08-30T05:16:49;92406.34;;;17.60;95.24
40592;BME280;26301;42.832;23.918;2023-08-30T05:19:15;92406.47;;;17.78;94.26
40592;BME280;26301;42.832;23.918;2023-08-30T05:21:43;92395.75;;;17.79;93.00
40592;BME280;26301;42.832;23.918;2023-08-30T05:24:09;92408.94;;;17.97;92.85
40592;BME280;26301;42.832;23.918;2023-08-30T05:26:35;92417.44;;;18.34;92.60
40592;BME280;26301;42.832;23.918;2023-08-30T05:29:02;92414.63;;;18.61;92.42
40592;BME280;26301;42.832;23.918;2023-08-30T05:31:27;92422.78;;;18.91;91.10
40592;BME280;26301;42.832;23.918;2023-08-30T05:33:53;92394.78;;;19.00;88.64
40592;BME280;26301;42.832;23.918;2023-08-30T05:36:19;92414.25;;;19.34;86.31
40592;BME280;26301;42.832;23.918;2023-08-30T05:38:45;92410.28;;;19.54;83.22
40592;BME280;26301;42.832;23.918;2023-08-30T05:41:12;92434.31;;;19.82;81.77
40592;BME280;26301;42.832;23.918;2023-08-30T05:43:38;92432.03;;;19.98;80.85
40592;BME280;26301;42.832;23.918;2023-08-30T05:46:04;92426.91;;;20.19;79.95
40592;BME280;26301;42.832;23.918;2023-08-30T05:48:30;92424.38;;;20.40;79.05
40592;BME280;26301;42.832;23.918;2023-08-30T05:50:56;92431.94;;;20.50;77.49
40592;BME280;26301;42.832;23.918;2023-08-30T05:53:23;92431.16;;;20.58;76.40
40592;BME280;26301;42.832;23.918;2023-08-30T05:55:49;92430.50;;;20.70;76.12
40592;BME280;26301;42.832;23.918;2023-08-30T05:58:15;92428.63;;;20.79;76.69
40592;BME280;26301;42.832;23.918;2023-08-30T06:00:41;92426.38;;;20.98;75.32
40592;BME280;26301;42.832;23.918;2023-08-30T06:03:07;92436.78;;;21.16;73.88
40592;BME280;26301;42.832;23.918;2023-08-30T06:05:34;92427.03;;;21.16;73.15
40592;BME280;26301;42.832;23.918;2023-08-30T06:08:00;92416.16;;;21.27;73.45
40592;BME280;26301;42.832;23.918;2023-08-30T06:10:28;92411.47;;;21.41;73.72
40592;BME280;26301;42.832;23.918;2023-08-30T06:12:54;92405.53;;;21.53;73.31
40592;BME280;26301;42.832;23.918;2023-08-30T06:15:20;92430.28;;;21.73;71.44
40592;BME280;26301;42.832;23.918;2023-08-30T06:17:46;92421.16;;;21.70;70.79
40592;BME280;26301;42.832;23.918;2023-08-30T06:20:14;92410.31;;;21.72;70.58
40592;BME280;26301;42.832;23.918;2023-08-30T06:22:39;92416.97;;;21.90;71.98
40592;BME280;26301;42.832;23.918;2023-08-30T06:25:09;92413.19;;;22.00;71.22
40592;BME280;26301;42.832;23.918;2023-08-30T06:27:42;92423.50;;;22.05;70.21
40592;BME280;26301;42.832;23.918;2023-08-30T06:30:10;92439.91;;;22.02;71.27
40592;BME280;26301;42.832;23.918;2023-08-30T06:32:36;92437.22;;;22.10;68.55
40592;BME280;26301;42.832;23.918;2023-08-30T06:35:02;92426.78;;;22.02;69.46
40592;BME280;26301;42.832;23.918;2023-08-30T06:37:29;92434.00;;;22.05;69.09
40592;BME280;26301;42.832;23.918;2023-08-30T06:39:55;92440.72;;;22.02;69.86
40592;BME280;26301;42.832;23.918;2023-08-30T06:42:21;92442.69;;;22.05;70.81
40592;BME280;26301;42.832;23.918;2023-08-30T06:44:51;92444.34;;;22.10;70.79
40592;BME280;26301;42.832;23.918;2023-08-30T06:47:17;92424.72;;;22.07;70.45
40592;BME280;26301;42.832;23.918;2023-08-30T06:49:42;92416.47;;;22.18;70.45
40592;BME280;26301;42.832;23.918;2023-08-30T06:52:08;92410.34;;;22.26;69.99
40592;BME280;26301;42.832;23.918;2023-08-30T06:54:35;92423.75;;;22.33;69.78
40592;BME280;26301;42.832;23.918;2023-08-30T06:57:02;92410.47;;;22.29;68.44
40592;BME280;26301;42.832;23.918;2023-08-30T06:59:28;92429.50;;;22.59;67.54
40592;BME280;26301;42.832;23.918;2023-08-30T07:01:54;92437.97;;;22.77;67.76
40592;BME280;26301;42.832;23.918;2023-08-30T07:04:20;92423.38;;;22.80;65.08
40592;BME280;26301;42.832;23.918;2023-08-30T07:06:46;92426.50;;;22.94;65.90
40592;BME280;26301;42.832;23.918;2023-08-30T07:09:12;92414.19;;;22.98;63.32
40592;BME280;26301;42.832;23.918;2023-08-30T07:11:38;92418.50;;;23.03;61.65
40592;BME280;26301;42.832;23.918;2023-08-30T07:14:04;92433.06;;;23.25;61.90
40592;BME280;26301;42.832;23.918;2023-08-30T07:16:31;92438.13;;;23.30;62.46
40592;BME280;26301;42.832;23.918;2023-08-30T07:18:58;92441.19;;;23.44;60.99
40592;BME280;26301;42.832;23.918;2023-08-30T07:21:24;92424.28;;;23.33;60.63
40592;BME280;26301;42.832;23.918;2023-08-30T07:23:50;92441.38;;;23.51;60.72
40592;BME280;26301;42.832;23.918;2023-08-30T07:26:16;92418.13;;;23.54;60.68
40592;BME280;26301;42.832;23.918;2023-08-30T07:28:42;92435.88;;;23.81;61.56
40592;BME280;26301;42.832;23.918;2023-08-30T07:31:08;92434.53;;;23.87;60.46
40592;BME280;26301;42.832;23.918;2023-08-30T07:33:35;92429.97;;;24.00;59.24
40592;BME280;26301;42.832;23.918;2023-08-30T07:36:01;92424.78;;;24.16;56.07
40592;BME280;26301;42.832;23.918;2023-08-30T07:38:28;92439.75;;;24.28;56.86
40592;BME280;26301;42.832;23.918;2023-08-30T07:40:54;92415.78;;;24.33;57.29
40592;BME280;26301;42.832;23.918;2023-08-30T07:43:19;92423.00;;;24.64;57.41
40592;BME280;26301;42.832;23.918;2023-08-30T07:45:45;92431.69;;;24.80;54.40
40592;BME280;26301;42.832;23.918;2023-08-30T07:48:11;92409.47;;;24.81;54.32
40592;BME280;26301;42.832;23.918;2023-08-30T07:50:37;92429.13;;;25.00;55.21
40592;BME280;26301;42.832;23.918;2023-08-30T07:53:03;92422.16;;;25.07;53.42
40592;BME280;26301;42.832;23.918;2023-08-30T07:55:30;92416.88;;;25.07;52.90
40592;BME280;26301;42.832;23.918;2023-08-30T07:57:56;92422.66;;;25.29;52.36
40592;BME280;26301;42.832;23.918;2023-08-30T08:00:22;92409.88;;;25.31;54.05
40592;BME280;26301;42.832;23.918;2023-08-30T08:02:48;92424.09;;;25.42;54.71
40592;BME280;26301;42.832;23.918;2023-08-30T08:05:14;92421.53;;;25.46;54.63
40592;BME280;26301;42.832;23.918;2023-08-30T08:07:42;92418.69;;;25.54;55.20
40592;BME280;26301;42.832;23.918;2023-08-30T08:10:08;92423.75;;;25.79;54.73
40592;BME280;26301;42.832;23.918;2023-08-30T08:12:35;92427.88;;;25.96;53.68
40592;BME280;26301;42.832;23.918;2023-08-30T08:15:01;92418.97;;;26.04;52.84
40592;BME280;26301;42.832;23.918;2023-08-30T08:17:27;92430.16;;;26.17;52.86
40592;BME280;26301;42.832;23.918;2023-08-30T08:19:53;92380.56;;;25.91;51.88
40592;BME280;26301;42.832;23.918;2023-08-30T08:22:19;92386.25;;;26.12;51.82
40592;BME280;26301;42.832;23.918;2023-08-30T08:24:45;92429.09;;;26.41;51.79
40592;BME280;26301;42.832;23.918;2023-08-30T08:27:12;92428.47;;;26.48;51.39
40592;BME280;26301;42.832;23.918;2023-08-30T08:29:38;92376.97;;;26.22;49.93
40592;BME280;26301;42.832;23.918;2023-08-30T08:32:04;92419.69;;;26.63;49.96
40592;BME280;26301;42.832;23.918;2023-08-30T08:34:32;92404.72;;;26.74;49.37
40592;BME280;26301;42.832;23.918;2023-08-30T08:36:57;92424.59;;;26.84;48.20
40592;BME280;26301;42.832;23.918;2023-08-30T08:39:23;92401.63;;;26.91;48.72
40592;BME280;26301;42.832;23.918;2023-08-30T08:41:49;92415.25;;;27.17;49.77
40592;BME280;26301;42.832;23.918;2023-08-30T08:44:18;92415.47;;;27.31;47.19
40592;BME280;26301;42.832;23.918;2023-08-30T08:46:46;92420.53;;;27.40;47.84
40592;BME280;26301;42.832;23.918;2023-08-30T08:49:14;92420.59;;;27.43;47.53
40592;BME280;26301;42.832;23.918;2023-08-30T08:51:41;92421.16;;;27.56;47.27
40592;BME280;26301;42.832;23.918;2023-08-30T08:54:11;92422.25;;;27.55;46.52
40592;BME280;26301;42.832;23.918;2023-08-30T08:56:38;92403.97;;;27.46;46.99
40592;BME280;26301;42.832;23.918;2023-08-30T08:59:05;92420.06;;;27.61;46.68
40592;BME280;26301;42.832;23.918;2023-08-30T09:01:34;92405.97;;;27.53;46.81
40592;BME280;26301;42.832;23.918;2023-08-30T09:04:07;92417.84;;;27.63;46.34
40592;BME280;26301;42.832;23.918;2023-08-30T09:06:34;92426.59;;;27.67;45.16
40592;BME280;26301;42.832;23.918;2023-08-30T09:09:03;92402.19;;;27.54;45.81
40592;BME280;26301;42.832;23.918;2023-08-30T09:11:30;92410.97;;;27.62;46.30
40592;BME280;26301;42.832;23.918;2023-08-30T09:13:56;92408.75;;;27.64;45.66
40592;BME280;26301;42.832;23.918;2023-08-30T09:16:22;92417.88;;;27.66;46.21
40592;BME280;26301;42.832;23.918;2023-08-30T09:19:02;92402.25;;;27.61;46.37
40592;BME280;26301;42.832;23.918;2023-08-30T09:21:29;92401.97;;;27.66;45.03
40592;BME280;26301;42.832;23.918;2023-08-30T09:24:05;92401.47;;;27.57;45.89
40592;BME280;26301;42.832;23.918;2023-08-30T09:26:32;92405.41;;;27.70;46.00
40592;BME280;26301;42.832;23.918;2023-08-30T09:29:18;92412.44;;;27.86;44.61
40592;BME280;26301;42.832;23.918;2023-08-30T09:31:45;92390.47;;;27.58;44.70
40592;BME280;26301;42.832;23.918;2023-08-30T09:34:11;92392.34;;;27.54;46.31
40592;BME280;26301;42.832;23.918;2023-08-30T09:36:41;92408.31;;;27.62;44.75
40592;BME280;26301;42.832;23.918;2023-08-30T09:39:14;92399.13;;;27.52;44.77
40592;BME280;26301;42.832;23.918;2023-08-30T09:41:49;92412.56;;;27.66;44.65
40592;BME280;26301;42.832;23.918;2023-08-30T09:44:20;92413.13;;;27.79;43.76
40592;BME280;26301;42.832;23.918;2023-08-30T09:46:53;92405.44;;;27.74;44.93
40592;BME280;26301;42.832;23.918;2023-08-30T09:49:24;92410.75;;;27.74;44.35
40592;BME280;26301;42.832;23.918;2023-08-30T09:51:51;92409.25;;;27.73;44.96
40592;BME280;26301;42.832;23.918;2023-08-30T09:54:19;92405.06;;;27.72;44.48
40592;BME280;26301;42.832;23.918;2023-08-30T09:56:46;92412.66;;;27.73;45.03
40592;BME280;26301;42.832;23.918;2023-08-30T09:59:14;92392.41;;;27.62;44.25
40592;BME280;26301;42.832;23.918;2023-08-30T10:01:41;92406.59;;;27.73;44.63
40592;BME280;26301;42.832;23.918;2023-08-30T10:04:08;92390.84;;;27.57;45.80
40592;BME280;26301;42.832;23.918;2023-08-30T10:06:38;92393.75;;;27.75;44.83
40592;BME280;26301;42.832;23.918;2023-08-30T10:09:05;92408.31;;;27.88;44.96
40592;BME280;26301;42.832;23.918;2023-08-30T10:11:34;92389.38;;;27.86;44.52
40592;BME280;26301;42.832;23.918;2023-08-30T10:14:03;92382.59;;;27.92;45.51
40592;BME280;26301;42.832;23.918;2023-08-30T10:16:35;92375.16;;;28.05;44.60
40592;BME280;26301;42.832;23.918;2023-08-30T10:19:16;92388.84;;;28.07;43.52
40592;BME280;26301;42.832;23.918;2023-08-30T10:21:47;92366.19;;;28.17;44.27
40592;BME280;26301;42.832;23.918;2023-08-30T10:24:16;92375.81;;;28.29;43.22
40592;BME280;26301;42.832;23.918;2023-08-30T10:26:44;92384.94;;;28.31;43.62
40592;BME280;26301;42.832;23.918;2023-08-30T10:29:14;92393.44;;;28.44;43.06
40592;BME280;26301;42.832;23.918;2023-08-30T10:31:41;92368.78;;;28.43;42.85
40592;BME280;26301;42.832;23.918;2023-08-30T10:34:15;92380.53;;;28.46;42.74
40592;BME280;26301;42.832;23.918;2023-08-30T10:36:42;92387.41;;;28.51;42.81
40592;BME280;26301;42.832;23.918;2023-08-30T10:39:13;92388.94;;;28.52;43.61
40592;BME280;26301;42.832;23.918;2023-08-30T10:41:56;92396.69;;;28.34;43.91
40592;BME280;26301;42.832;23.918;2023-08-30T10:44:23;92375.47;;;28.00;44.90
40592;BME280;26301;42.832;23.918;2023-08-30T10:46:53;92387.63;;;28.01;44.94
40592;BME280;26301;42.832;23.918;2023-08-30T10:49:20;92374.47;;;27.78;45.70
40592;BME280;26301;42.832;23.918;2023-08-30T10:51:57;92393.28;;;27.69;45.39
40592;BME280;26301;42.832;23.918;2023-08-30T10:54:24;92393.50;;;27.57;46.29
40592;BME280;26301;42.832;23.918;2023-08-30T10:56:57;92382.34;;;27.44;45.92
40592;BME280;26301;42.832;23.918;2023-08-30T10:59:26;92401.91;;;27.63;45.90
40592;BME280;26301;42.832;23.918;2023-08-30T11:01:53;92376.34;;;27.47;46.51
40592;BME280;26301;42.832;23.918;2023-08-30T11:04:21;92387.59;;;27.41;45.89
40592;BME280;26301;42.832;23.918;2023-08-30T11:06:51;92390.63;;;27.39;47.88
40592;BME280;26301;42.832;23.918;2023-08-30T11:09:19;92383.16;;;27.48;47.48
40592;BME280;26301;42.832;23.918;2023-08-30T11:11:49;92388.19;;;27.57;46.90
40592;BME280;26301;42.832;23.918;2023-08-30T11:14:16;92377.13;;;27.51;46.86
40592;BME280;26301;42.832;23.918;2023-08-30T11:16:43;92379.84;;;27.55;46.22
40592;BME280;26301;42.832;23.918;2023-08-30T11:19:10;92380.31;;;27.64;46.75
40592;BME280;26301;42.832;23.918;2023-08-30T11:21:38;92390.97;;;27.68;45.64
40592;BME280;26301;42.832;23.918;2023-08-30T11:24:04;92371.91;;;27.58;46.83
40592;BME280;26301;42.832;23.918;2023-08-30T11:26:31;92368.50;;;27.58;45.07
40592;BME280;26301;42.832;23.918;2023-08-30T11:28:57;92383.13;;;27.75;44.96
40592;BME280;26301;42.832;23.918;2023-08-30T11:31:29;92374.47;;;27.78;45.05
40592;BME280;26301;42.832;23.918;2023-08-30T11:33:56;92377.88;;;27.78;44.08
40592;BME280;26301;42.832;23.918;2023-08-30T11:36:25;92372.50;;;27.45;45.19
40592;BME280;26301;42.832;23.918;2023-08-30T11:38:53;92352.41;;;27.44;44.74
40592;BME280;26301;42.832;23.918;2023-08-30T11:41:26;92379.34;;;27.46;46.04
40592;BME280;26301;42.832;23.918;2023-08-30T11:43:52;92379.09;;;27.28;47.76
40592;BME280;26301;42.832;23.918;2023-08-30T11:46:19;92371.34;;;26.92;47.29
40592;BME280;26301;42.832;23.918;2023-08-30T11:48:47;92374.13;;;26.77;46.85
40592;BME280;26301;42.832;23.918;2023-08-30T11:51:13;92358.09;;;26.66;47.28
40592;BME280;26301;42.832;23.918;2023-08-30T11:53:40;92354.50;;;26.78;47.63
40592;BME280;26301;42.832;23.918;2023-08-30T11:56:07;92374.25;;;27.10;47.56
40592;BME280;26301;42.832;23.918;2023-08-30T11:58:34;92362.06;;;27.29;46.96
40592;BME280;26301;42.832;23.918;2023-08-30T12:01:01;92356.34;;;27.27;46.83
40592;BME280;26301;42.832;23.918;2023-08-30T12:03:29;92352.63;;;27.31;44.35
40592;BME280;26301;42.832;23.918;2023-08-30T12:05:55;92346.34;;;27.43;45.11
40592;BME280;26301;42.832;23.918;2023-08-30T12:10:52;92362.53;;;27.65;44.51
40592;BME280;26301;42.832;23.918;2023-08-30T12:15:46;92358.03;;;27.69;43.64
40592;BME280;26301;42.832;23.918;2023-08-30T12:18:12;92363.56;;;27.56;44.09
40592;BME280;26301;42.832;23.918;2023-08-30T12:20:38;92367.47;;;27.66;44.38
40592;BME280;26301;42.832;23.918;2023-08-30T12:23:04;92356.59;;;27.75;44.09
40592;BME280;26301;42.832;23.918;2023-08-30T12:25:30;92341.16;;;27.80;43.68
40592;BME280;26301;42.832;23.918;2023-08-30T12:27:57;92344.09;;;27.75;44.72
40592;BME280;26301;42.832;23.918;2023-08-30T12:30:24;92338.16;;;27.86;44.98
40592;BME280;26301;42.832;23.918;2023-08-30T12:32:50;92351.88;;;27.91;44.57
40592;BME280;26301;42.832;23.918;2023-08-30T12:35:16;92352.22;;;27.86;44.93
40592;BME280;26301;42.832;23.918;2023-08-30T12:37:42;92350.09;;;27.69;43.95
40592;BME280;26301;42.832;23.918;2023-08-30T12:40:08;92337.13;;;27.33;44.81
40592;BME280;26301;42.832;23.918;2023-08-30T12:42:34;92351.63;;;27.43;45.21
40592;BME280;26301;42.832;23.918;2023-08-30T12:45:01;92351.69;;;27.47;44.27
40592;BME280;26301;42.832;23.918;2023-08-30T12:47:28;92345.31;;;27.51;44.92
40592;BME280;26301;42.832;23.918;2023-08-30T12:49:55;92323.91;;;27.37;44.63
40592;BME280;26301;42.832;23.918;2023-08-30T12:52:21;92346.00;;;27.45;45.12
40592;BME280;26301;42.832;23.918;2023-08-30T12:54:47;92334.13;;;27.65;44.92
40592;BME280;26301;42.832;23.918;2023-08-30T12:57:13;92335.78;;;27.77;44.81
40592;BME280;26301;42.832;23.918;2023-08-30T12:59:39;92321.69;;;27.73;43.89
40592;BME280;26301;42.832;23.918;2023-08-30T13:02:06;92312.59;;;27.74;42.55